createdAt,value
2018-08-01T00:01:18.084Z,20.90
2018-08-01T00:03:48.941Z,20.90
2018-08-01T00:08:46.141Z,20.80
2018-08-01T00:11:18.224Z,20.70
2018-08-01T00:13:47.257Z,20.70
2018-08-01T00:16:16.038Z,20.60
2018-08-01T00:18:44.778Z,20.60
2018-08-01T00:21:13.614Z,20.60
2018-08-01T00:23:42.316Z,20.70
2018-08-01T00:26:11.045Z,20.60
2018-08-01T00:28:39.746Z,20.50
2018-08-01T00:31:08.486Z,20.50
2018-08-01T00:33:48.930Z,20.40
2018-08-01T00:36:18.888Z,20.40
2018-08-01T00:38:47.617Z,20.30
2018-08-01T00:41:16.303Z,20.30
2018-08-01T00:43:45.009Z,20.40
2018-08-01T00:46:14.376Z,20.40
2018-08-01T00:48:43.101Z,20.30
2018-08-01T00:51:11.811Z,20.40
2018-08-01T00:53:40.547Z,20.40
2018-08-01T00:56:10.992Z,20.40
2018-08-01T00:58:39.715Z,20.40
2018-08-01T01:01:08.776Z,20.40
2018-08-01T01:06:05.905Z,20.30
2018-08-01T01:08:34.608Z,20.30
2018-08-01T01:11:03.384Z,20.30
2018-08-01T01:13:32.116Z,20.30
2018-08-01T01:16:00.845Z,20.30
2018-08-01T01:18:29.562Z,20.30
2018-08-01T01:20:58.303Z,20.30
2018-08-01T01:23:28.028Z,20.30
2018-08-01T01:25:56.745Z,20.30
2018-08-01T01:28:25.491Z,20.30
2018-08-01T01:30:54.236Z,20.30
2018-08-01T01:33:22.973Z,20.30
2018-08-01T01:36:07.088Z,20.30
2018-08-01T01:38:45.864Z,20.30
2018-08-01T01:41:23.295Z,20.20
2018-08-01T01:44:03.943Z,20.20
2018-08-01T01:46:40.972Z,20.20
2018-08-01T01:49:09.768Z,20.30
2018-08-01T01:51:38.475Z,20.30
2018-08-01T01:54:07.336Z,20.30
2018-08-01T01:56:36.085Z,20.30
2018-08-01T01:59:04.823Z,20.20
2018-08-01T02:01:33.564Z,20.20
2018-08-01T02:04:02.309Z,20.20
2018-08-01T02:06:31.064Z,20.30
2018-08-01T02:08:59.780Z,20.30
2018-08-01T02:11:28.496Z,20.20
2018-08-01T02:13:57.212Z,19.70
2018-08-01T02:16:25.990Z,19.50
2018-08-01T02:18:54.758Z,19.20
2018-08-01T02:21:23.520Z,19.10
2018-08-01T02:23:52.388Z,19.00
2018-08-01T02:26:21.154Z,19.00
2018-08-01T02:28:49.879Z,18.90
2018-08-01T02:31:18.597Z,19.00
2018-08-01T02:33:47.300Z,19.00
2018-08-01T02:36:16.107Z,19.10
2018-08-01T02:41:13.132Z,19.20
2018-08-01T02:43:41.831Z,19.40
2018-08-01T02:46:10.556Z,19.40
2018-08-01T02:48:39.307Z,19.50
2018-08-01T02:51:08.024Z,19.50
2018-08-01T02:53:36.736Z,19.50
2018-08-01T02:56:05.422Z,19.50
2018-08-01T02:58:34.121Z,19.60
2018-08-01T03:03:31.273Z,19.50
2018-08-01T03:06:00.011Z,19.50
2018-08-01T03:08:32.377Z,19.50
2018-08-01T03:11:01.106Z,19.50
2018-08-01T03:15:58.580Z,19.50
2018-08-01T03:18:33.212Z,19.40
2018-08-01T03:21:01.946Z,19.40
2018-08-01T03:23:30.675Z,19.50
2018-08-01T03:25:59.496Z,19.40
2018-08-01T03:28:28.221Z,19.40
2018-08-01T03:30:56.916Z,19.30
2018-08-01T03:33:25.639Z,19.30
2018-08-01T03:35:54.363Z,19.40
2018-08-01T03:38:24.527Z,19.40
2018-08-01T03:40:53.385Z,19.40
2018-08-01T03:43:22.200Z,19.40
2018-08-01T03:45:50.943Z,19.30
2018-08-01T03:48:21.808Z,19.30
2018-08-01T03:50:50.571Z,19.30
2018-08-01T03:53:19.299Z,19.30
2018-08-01T03:55:48.442Z,19.30
2018-08-01T03:58:17.180Z,19.20
2018-08-01T04:00:45.914Z,19.20
2018-08-01T04:03:14.645Z,19.20
2018-08-01T04:05:44.373Z,19.20
2018-08-01T04:08:13.244Z,19.20
2018-08-01T04:10:42.305Z,19.20
2018-08-01T04:13:13.164Z,19.20
2018-08-01T04:15:41.993Z,19.30
2018-08-01T04:18:15.056Z,19.30
2018-08-01T04:20:47.615Z,19.40
2018-08-01T04:23:16.364Z,19.40
2018-08-01T04:25:45.112Z,19.40
2018-08-01T04:28:24.538Z,19.50
2018-08-01T04:30:54.111Z,19.40
2018-08-01T04:33:23.831Z,19.40
2018-08-01T04:35:52.604Z,19.40
2018-08-01T04:38:21.296Z,19.50
2018-08-01T04:40:50.369Z,19.50
2018-08-01T04:45:47.778Z,19.70
2018-08-01T04:48:16.538Z,19.70
2018-08-01T04:50:46.135Z,20.10
2018-08-01T04:53:14.835Z,21.20
2018-08-01T04:55:43.556Z,22.00
2018-08-01T04:58:12.319Z,22.80
2018-08-01T05:00:41.029Z,23.40
2018-08-01T05:03:09.884Z,23.70
2018-08-01T05:08:07.076Z,22.50
2018-08-01T05:10:35.837Z,21.80
2018-08-01T05:13:04.569Z,21.50
2018-08-01T05:15:33.329Z,21.20
2018-08-01T05:18:02.782Z,21.10
2018-08-01T05:20:31.508Z,21.10
2018-08-01T05:23:00.273Z,21.10
2018-08-01T05:25:29.389Z,21.00
2018-08-01T05:27:58.186Z,20.90
2018-08-01T05:30:27.647Z,20.70
2018-08-01T05:32:56.392Z,20.60
2018-08-01T05:35:25.180Z,20.60
2018-08-01T05:37:53.935Z,20.60
2018-08-01T05:40:22.767Z,20.70
2018-08-01T05:42:51.555Z,20.70
2018-08-01T05:45:20.339Z,20.70
2018-08-01T05:47:49.195Z,20.70
2018-08-01T05:50:18.005Z,20.70
2018-08-01T05:52:46.794Z,20.70
2018-08-01T05:55:15.596Z,20.60
2018-08-01T05:57:44.363Z,20.60
2018-08-01T06:00:13.135Z,20.60
2018-08-01T06:02:41.925Z,20.60
2018-08-01T06:05:10.696Z,20.60
2018-08-01T06:07:39.446Z,20.70
2018-08-01T06:10:08.273Z,20.60
2018-08-01T06:12:37.057Z,20.60
2018-08-01T06:15:06.110Z,20.50
2018-08-01T06:17:35.053Z,20.60
2018-08-01T06:20:04.251Z,20.70
2018-08-01T06:22:33.006Z,20.70
2018-08-01T06:25:01.748Z,20.70
2018-08-01T06:27:30.514Z,20.80
2018-08-01T06:29:59.238Z,20.90
2018-08-01T06:34:57.362Z,20.80
2018-08-01T06:37:26.198Z,20.90
2018-08-01T06:39:55.214Z,20.90
2018-08-01T06:42:24.052Z,20.90
2018-08-01T06:44:52.877Z,21.00
2018-08-01T06:47:21.793Z,20.90
2018-08-01T06:49:50.777Z,21.00
2018-08-01T06:52:20.522Z,21.10
2018-08-01T06:54:49.319Z,21.10
2018-08-01T06:59:46.797Z,21.20
2018-08-01T07:02:16.243Z,21.20
2018-08-01T07:04:45.196Z,21.40
2018-08-01T07:07:14.093Z,21.30
2018-08-01T07:09:43.000Z,21.20
2018-08-01T07:12:11.897Z,21.20
2018-08-01T07:14:40.821Z,21.30
2018-08-01T07:17:09.699Z,21.50
2018-08-01T07:19:38.766Z,21.60
2018-08-01T07:22:07.498Z,21.70
2018-08-01T07:24:38.009Z,21.70
2018-08-01T07:27:07.014Z,21.70
2018-08-01T07:29:35.812Z,21.80
2018-08-01T07:32:04.688Z,21.80
2018-08-01T07:34:33.552Z,21.90
2018-08-01T07:37:02.539Z,21.90
2018-08-01T07:39:31.469Z,21.90
2018-08-01T07:42:09.987Z,21.90
2018-08-01T07:44:38.776Z,22.00
2018-08-01T07:47:07.553Z,22.00
2018-08-01T07:49:36.686Z,22.10
2018-08-01T07:52:08.405Z,22.20
2018-08-01T07:54:37.120Z,22.20
2018-08-01T07:57:05.960Z,22.20
2018-08-01T07:59:34.890Z,22.30
2018-08-01T08:02:03.658Z,22.20
2018-08-01T08:04:32.665Z,22.30
2018-08-01T08:07:01.477Z,22.40
2018-08-01T08:09:30.242Z,22.40
2018-08-01T08:11:59.648Z,22.40
2018-08-01T08:14:28.389Z,22.40
2018-08-01T08:16:57.166Z,22.40
2018-08-01T08:19:26.352Z,22.40
2018-08-01T08:21:55.350Z,22.50
2018-08-01T08:24:24.160Z,22.60
2018-08-01T08:26:52.899Z,22.70
2018-08-01T08:31:50.121Z,22.70
2018-08-01T08:34:18.934Z,22.70
2018-08-01T08:36:47.725Z,22.70
2018-08-01T08:39:16.575Z,22.80
2018-08-01T08:41:46.435Z,22.80
2018-08-01T08:44:15.487Z,22.90
2018-08-01T08:46:44.300Z,22.90
2018-08-01T08:49:13.161Z,22.80
2018-08-01T08:51:41.927Z,22.80
2018-08-01T08:54:10.680Z,22.90
2018-08-01T08:56:39.502Z,23.10
2018-08-01T08:59:09.162Z,23.10
2018-08-01T09:01:38.108Z,23.10
2018-08-01T09:04:07.862Z,23.20
2018-08-01T09:06:37.164Z,23.20
2018-08-01T09:09:07.349Z,23.30
2018-08-01T09:11:36.180Z,23.40
2018-08-01T09:14:05.074Z,23.40
2018-08-01T09:16:33.910Z,23.40
2018-08-01T09:19:02.761Z,23.50
2018-08-01T09:21:31.708Z,23.50
2018-08-01T09:24:00.506Z,23.50
2018-08-01T09:26:29.270Z,23.50
2018-08-01T09:28:58.079Z,23.70
2018-08-01T09:34:02.123Z,23.70
2018-08-01T09:36:30.977Z,23.70
2018-08-01T09:39:00.018Z,23.70
2018-08-01T09:41:28.847Z,23.90
2018-08-01T09:43:57.616Z,24.10
2018-08-01T09:46:27.179Z,24.20
2018-08-01T09:48:56.573Z,24.20
2018-08-01T09:51:32.237Z,24.10
2018-08-01T09:54:01.986Z,24.20
2018-08-01T09:56:30.558Z,24.30
2018-08-01T09:58:59.386Z,24.30
2018-08-01T10:01:46.045Z,24.30
2018-08-01T10:04:15.280Z,24.30
2018-08-01T10:06:44.061Z,24.40
2018-08-01T10:09:14.133Z,24.50
2018-08-01T10:11:42.932Z,24.60
2018-08-01T10:14:12.372Z,24.70
2018-08-01T10:16:41.258Z,24.90
2018-08-01T10:19:11.878Z,25.00
2018-08-01T10:22:16.300Z,25.10
2018-08-01T10:24:47.425Z,25.20
2018-08-01T10:27:17.019Z,25.30
2018-08-01T10:29:47.211Z,25.20
2018-08-01T10:32:16.338Z,25.30
2018-08-01T10:34:46.076Z,25.20
2018-08-01T10:37:15.162Z,25.30
2018-08-01T10:39:44.738Z,25.30
2018-08-01T10:42:13.705Z,25.40
2018-08-01T10:44:42.565Z,25.40
2018-08-01T10:47:13.413Z,25.50
2018-08-01T10:49:42.292Z,25.50
2018-08-01T10:52:11.187Z,25.50
2018-08-01T10:54:39.965Z,25.30
2018-08-01T10:57:09.190Z,25.40
2018-08-01T10:59:38.102Z,25.40
2018-08-01T11:02:08.305Z,25.50
2018-08-01T11:04:37.462Z,25.60
2018-08-01T11:07:06.276Z,25.60
2018-08-01T11:09:35.222Z,25.70
2018-08-01T11:12:04.044Z,25.80
2018-08-01T11:14:32.927Z,25.90
2018-08-01T11:17:03.524Z,26.10
2018-08-01T11:19:32.328Z,26.30
2018-08-01T11:22:01.204Z,26.40
2018-08-01T11:24:30.023Z,26.50
2018-08-01T11:26:58.882Z,26.70
2018-08-01T11:29:27.643Z,26.80
2018-08-01T11:31:56.518Z,26.80
2018-08-01T11:34:25.407Z,26.70
2018-08-01T11:36:54.311Z,26.80
2018-08-01T11:39:23.137Z,26.90
2018-08-01T11:41:51.929Z,27.00
2018-08-01T11:44:20.698Z,26.90
2018-08-01T11:49:17.968Z,26.80
2018-08-01T11:51:46.740Z,26.70
2018-08-01T11:54:15.699Z,26.70
2018-08-01T11:56:44.494Z,26.80
2018-08-01T11:59:13.335Z,27.00
2018-08-01T12:01:42.079Z,27.00
2018-08-01T12:04:10.971Z,27.10
2018-08-01T12:06:39.811Z,27.20
2018-08-01T12:09:09.769Z,27.30
2018-08-01T12:11:38.906Z,27.40
2018-08-01T12:14:07.862Z,27.50
2018-08-01T12:16:36.693Z,27.60
2018-08-01T12:19:05.695Z,27.80
2018-08-01T12:21:34.484Z,27.90
2018-08-01T12:24:03.313Z,27.90
2018-08-01T12:26:32.060Z,28.10
2018-08-01T12:29:00.796Z,28.10
2018-08-01T12:31:29.592Z,28.20
2018-08-01T12:33:58.393Z,28.30
2018-08-01T12:36:27.121Z,28.50
2018-08-01T12:38:55.961Z,28.60
2018-08-01T12:41:24.730Z,28.60
2018-08-01T12:43:53.584Z,28.60
2018-08-01T12:46:22.365Z,28.60
2018-08-01T12:48:51.618Z,28.50
2018-08-01T12:51:20.406Z,28.50
2018-08-01T12:53:49.126Z,28.50
2018-08-01T12:56:17.894Z,28.50
2018-08-01T12:58:46.633Z,28.40
2018-08-01T13:01:15.565Z,28.30
2018-08-01T13:03:44.942Z,28.40
2018-08-01T13:06:13.901Z,28.40
2018-08-01T13:08:42.708Z,28.40
2018-08-01T13:11:11.449Z,28.20
2018-08-01T13:13:40.304Z,28.10
2018-08-01T13:16:09.076Z,28.10
2018-08-01T13:18:37.968Z,28.20
2018-08-01T13:21:06.946Z,28.40
2018-08-01T13:23:35.719Z,28.50
2018-08-01T13:26:04.907Z,28.60
2018-08-01T13:28:33.665Z,28.70
2018-08-01T13:31:02.384Z,28.70
2018-08-01T13:33:31.243Z,28.70
2018-08-01T13:36:00.034Z,28.80
2018-08-01T13:38:28.806Z,28.90
2018-08-01T13:40:57.890Z,29.10
2018-08-01T13:43:26.702Z,29.00
2018-08-01T13:48:24.092Z,29.10
2018-08-01T13:50:53.216Z,29.00
2018-08-01T13:53:21.951Z,28.80
2018-08-01T13:55:50.805Z,28.70
2018-08-01T14:00:47.992Z,28.40
2018-08-01T14:03:16.894Z,28.30
2018-08-01T14:05:45.662Z,28.30
2018-08-01T14:08:14.480Z,28.20
2018-08-01T14:10:43.237Z,28.20
2018-08-01T14:13:12.026Z,28.20
2018-08-01T14:15:41.062Z,28.20
2018-08-01T14:18:09.920Z,28.20
2018-08-01T14:20:38.921Z,28.20
2018-08-01T14:23:07.705Z,28.30
2018-08-01T14:28:07.197Z,28.40
2018-08-01T14:30:48.005Z,28.30
2018-08-01T14:33:17.352Z,28.20
2018-08-01T14:35:46.254Z,28.30
2018-08-01T14:38:15.413Z,28.20
2018-08-01T14:40:45.522Z,28.10
2018-08-01T14:43:16.045Z,28.10
2018-08-01T14:45:44.902Z,28.10
2018-08-01T14:48:13.770Z,28.00
2018-08-01T14:50:45.039Z,28.00
2018-08-01T14:53:16.976Z,27.80
2018-08-01T14:55:46.742Z,27.80
2018-08-01T14:58:16.285Z,27.80
2018-08-01T15:00:49.036Z,27.80
2018-08-01T15:03:18.497Z,27.90
2018-08-01T15:05:47.341Z,27.80
2018-08-01T15:08:17.666Z,27.80
2018-08-01T15:10:51.182Z,27.70
2018-08-01T15:13:24.985Z,27.60
2018-08-01T15:15:54.479Z,27.80
2018-08-01T15:18:23.299Z,27.90
2018-08-01T15:20:52.122Z,28.00
2018-08-01T15:23:21.013Z,28.00
2018-08-01T15:25:50.020Z,28.00
2018-08-01T15:28:18.976Z,28.10
2018-08-01T15:30:47.825Z,28.10
2018-08-01T15:33:16.626Z,28.10
2018-08-01T15:35:45.624Z,28.00
2018-08-01T15:38:14.411Z,28.10
2018-08-01T15:40:43.219Z,28.10
2018-08-01T15:43:12.063Z,28.00
2018-08-01T15:45:40.873Z,27.90
2018-08-01T15:48:09.679Z,28.00
2018-08-01T15:50:38.770Z,28.20
2018-08-01T15:53:07.562Z,28.10
2018-08-01T15:55:36.798Z,28.20
2018-08-01T15:58:05.673Z,28.10
2018-08-01T16:00:34.533Z,28.20
2018-08-01T16:03:03.514Z,28.40
2018-08-01T16:05:32.354Z,28.50
2018-08-01T16:08:01.144Z,28.40
2018-08-01T16:10:30.017Z,28.30
2018-08-01T16:12:58.839Z,28.40
2018-08-01T16:15:41.026Z,28.50
2018-08-01T16:18:09.926Z,28.40
2018-08-01T16:20:38.798Z,28.40
2018-08-01T16:23:07.768Z,28.20
2018-08-01T16:25:47.064Z,28.20
2018-08-01T16:28:15.846Z,28.10
2018-08-01T16:33:13.088Z,28.20
2018-08-01T16:35:42.316Z,28.50
2018-08-01T16:38:11.121Z,28.60
2018-08-01T16:40:39.967Z,28.60
2018-08-01T16:43:08.702Z,28.60
2018-08-01T16:45:44.182Z,28.70
2018-08-01T16:48:12.964Z,28.70
2018-08-01T16:50:42.004Z,28.70
2018-08-01T16:53:10.964Z,28.60
2018-08-01T16:55:46.891Z,28.40
2018-08-01T16:58:15.625Z,28.30
2018-08-01T17:00:45.462Z,28.10
2018-08-01T17:03:14.406Z,28.10
2018-08-01T17:05:43.277Z,28.40
2018-08-01T17:08:12.075Z,28.60
2018-08-01T17:10:41.274Z,28.50
2018-08-01T17:13:10.222Z,28.50
2018-08-01T17:18:12.830Z,28.40
2018-08-01T17:20:45.923Z,28.60
2018-08-01T17:23:14.679Z,28.70
2018-08-01T17:25:44.513Z,28.60
2018-08-01T17:28:30.891Z,28.40
2018-08-01T17:31:01.873Z,28.20
2018-08-01T17:33:31.531Z,28.10
2018-08-01T17:36:00.346Z,28.20
2018-08-01T17:38:32.192Z,28.00
2018-08-01T17:41:01.008Z,27.90
2018-08-01T17:43:29.866Z,28.00
2018-08-01T17:45:58.723Z,27.60
2018-08-01T17:48:27.582Z,27.50
2018-08-01T17:50:56.332Z,27.20
2018-08-01T17:53:28.587Z,27.00
2018-08-01T17:56:01.980Z,26.80
2018-08-01T17:58:30.769Z,26.60
2018-08-01T18:00:59.600Z,26.50
2018-08-01T18:03:28.753Z,26.30
2018-08-01T18:05:57.527Z,26.20
2018-08-01T18:08:26.518Z,26.00
2018-08-01T18:10:55.399Z,26.00
2018-08-01T18:13:24.332Z,25.90
2018-08-01T18:15:53.090Z,25.80
2018-08-01T18:18:22.350Z,25.80
2018-08-01T18:23:24.713Z,25.70
2018-08-01T18:25:53.675Z,25.50
2018-08-01T18:28:22.500Z,25.40
2018-08-01T18:30:51.277Z,25.20
2018-08-01T18:33:20.203Z,25.00
2018-08-01T18:35:48.989Z,25.00
2018-08-01T18:38:17.803Z,24.90
2018-08-01T18:40:46.589Z,24.70
2018-08-01T18:43:15.948Z,24.60
2018-08-01T18:45:44.779Z,24.40
2018-08-01T18:48:13.726Z,24.30
2018-08-01T18:50:42.476Z,24.30
2018-08-01T18:53:11.353Z,24.20
2018-08-01T18:55:40.477Z,24.10
2018-08-01T18:58:09.285Z,24.10
2018-08-01T19:00:38.089Z,24.00
2018-08-01T19:03:07.039Z,23.90
2018-08-01T19:05:35.877Z,23.80
2018-08-01T19:08:04.631Z,23.70
2018-08-01T19:10:33.380Z,23.50
2018-08-01T19:13:02.142Z,23.50
2018-08-01T19:15:30.903Z,23.40
2018-08-01T19:17:59.678Z,23.40
2018-08-01T19:20:28.517Z,23.30
2018-08-01T19:22:57.277Z,23.20
2018-08-01T19:25:26.046Z,23.20
2018-08-01T19:27:54.820Z,23.20
2018-08-01T19:30:23.624Z,23.10
2018-08-01T19:32:52.364Z,22.90
2018-08-01T19:35:21.193Z,22.90
2018-08-01T19:37:50.084Z,22.80
2018-08-01T19:40:19.046Z,22.70
2018-08-01T19:42:47.902Z,22.60
2018-08-01T19:45:16.674Z,22.60
2018-08-01T19:47:45.522Z,22.50
2018-08-01T19:50:14.418Z,22.40
2018-08-01T19:52:43.645Z,22.40
2018-08-01T19:55:19.071Z,22.40
2018-08-01T19:57:48.116Z,22.30
2018-08-01T20:00:16.530Z,22.20
2018-08-01T20:02:45.218Z,22.20
2018-08-01T20:05:14.050Z,22.20
2018-08-01T20:07:42.799Z,22.10
2018-08-01T20:10:12.416Z,22.10
2018-08-01T20:12:42.332Z,22.10
2018-08-01T20:17:39.545Z,21.90
2018-08-01T20:20:08.584Z,21.90
2018-08-01T20:22:40.155Z,21.80
2018-08-01T20:25:08.929Z,21.80
2018-08-01T20:27:37.870Z,21.70
2018-08-01T20:30:07.158Z,21.70
2018-08-01T20:32:35.930Z,21.70
2018-08-01T20:35:05.112Z,21.70
2018-08-01T20:37:33.968Z,21.60
2018-08-01T20:40:02.697Z,21.70
2018-08-01T20:42:31.435Z,21.70
2018-08-01T20:47:28.596Z,21.70
2018-08-01T20:49:57.333Z,21.70
2018-08-01T20:52:26.108Z,21.70
2018-08-01T20:54:54.903Z,21.70
2018-08-01T20:57:23.800Z,21.70
2018-08-01T20:59:52.584Z,21.70
2018-08-01T21:02:21.382Z,21.70
2018-08-01T21:04:50.253Z,21.80
2018-08-01T21:07:23.007Z,21.80
2018-08-01T21:09:51.902Z,21.80
2018-08-01T21:12:20.896Z,21.80
2018-08-01T21:14:49.880Z,21.80
2018-08-01T21:17:18.586Z,21.80
2018-08-01T21:19:47.380Z,21.80
2018-08-01T21:22:16.123Z,21.80
2018-08-01T21:24:44.949Z,21.80
2018-08-01T21:27:13.685Z,21.80
2018-08-01T21:29:46.549Z,21.80
2018-08-01T21:32:15.908Z,21.80
2018-08-01T21:34:45.347Z,21.80
2018-08-01T21:37:14.089Z,21.70
2018-08-01T21:39:42.789Z,21.70
2018-08-01T21:42:11.542Z,21.60
2018-08-01T21:44:51.035Z,21.50
2018-08-01T21:47:19.789Z,21.50
2018-08-01T21:49:48.891Z,21.40
2018-08-01T21:52:17.636Z,21.40
2018-08-01T21:54:46.369Z,21.40
2018-08-01T21:57:15.658Z,21.40
2018-08-01T21:59:48.876Z,21.40
2018-08-01T22:02:20.514Z,21.40
2018-08-01T22:04:50.136Z,21.40
2018-08-01T22:07:19.994Z,21.40
2018-08-01T22:09:50.346Z,21.40
2018-08-01T22:12:19.120Z,21.40
2018-08-01T22:14:47.832Z,21.40
2018-08-01T22:17:16.792Z,21.40
2018-08-01T22:22:13.963Z,21.30
2018-08-01T22:24:42.878Z,21.30
2018-08-01T22:27:11.634Z,21.30
2018-08-01T22:29:40.349Z,21.30
2018-08-01T22:32:09.101Z,21.30
2018-08-01T22:34:37.879Z,21.30
2018-08-01T22:37:06.609Z,21.30
2018-08-01T22:39:35.329Z,21.30
2018-08-01T22:42:04.062Z,21.30
2018-08-01T22:44:32.776Z,21.30
2018-08-01T22:47:01.486Z,21.30
2018-08-01T22:49:30.197Z,21.30
2018-08-01T22:52:00.899Z,21.30
2018-08-01T22:54:29.791Z,21.30
2018-08-01T22:56:58.416Z,21.30
2018-08-01T22:59:27.236Z,21.30
2018-08-01T23:01:56.077Z,21.20
2018-08-01T23:04:24.801Z,21.20
2018-08-01T23:06:53.539Z,21.20
2018-08-01T23:09:22.265Z,21.20
2018-08-01T23:11:50.985Z,21.20
2018-08-01T23:14:19.741Z,21.10
2018-08-01T23:16:48.492Z,21.00
2018-08-01T23:19:18.367Z,20.90
2018-08-01T23:21:47.105Z,20.90
2018-08-01T23:24:15.810Z,20.90
2018-08-01T23:26:44.592Z,20.90
2018-08-01T23:29:13.338Z,20.90
2018-08-01T23:31:43.084Z,20.80
2018-08-01T23:34:11.807Z,20.70
2018-08-01T23:36:41.816Z,20.70
2018-08-01T23:39:11.401Z,20.70
2018-08-01T23:41:40.095Z,20.80
2018-08-01T23:44:08.846Z,20.80
2018-08-01T23:46:37.584Z,20.80
2018-08-01T23:49:06.287Z,20.80
2018-08-01T23:51:35.032Z,20.80
2018-08-01T23:54:04.274Z,20.80
2018-08-01T23:56:32.983Z,20.80
